createdAt,value
2024-05-09T00:00:06.354Z,37.10
2024-05-09T00:01:04.163Z,37.11
2024-05-09T00:02:04.193Z,37.11
2024-05-09T00:03:04.170Z,37.12
2024-05-09T00:04:04.426Z,37.14
2024-05-09T00:05:04.390Z,37.09
2024-05-09T00:06:04.461Z,37.12
2024-05-09T00:07:04.303Z,37.11
2024-05-09T00:08:04.458Z,37.11
2024-05-09T00:09:04.400Z,37.13
2024-05-09T00:10:05.568Z,37.09
2024-05-09T00:11:04.577Z,37.10
2024-05-09T00:12:04.536Z,37.06
2024-05-09T00:13:04.488Z,37.12
2024-05-09T00:14:04.536Z,37.09
2024-05-09T00:15:04.496Z,37.09
2024-05-09T00:16:04.494Z,37.04
2024-05-09T00:17:04.557Z,37.04
2024-05-09T00:18:05.310Z,37.07
2024-05-09T00:19:04.646Z,37.05
2024-05-09T00:20:11.056Z,37.08
2024-05-09T00:21:05.570Z,37.10
2024-05-09T00:22:04.565Z,37.06
2024-05-09T00:23:04.588Z,37.08
2024-05-09T00:24:04.555Z,37.10
2024-05-09T00:25:04.560Z,37.08
2024-05-09T00:26:04.603Z,37.09
2024-05-09T00:27:04.596Z,37.08
2024-05-09T00:28:04.594Z,37.09
2024-05-09T00:29:04.649Z,37.10
2024-05-09T00:30:07.072Z,37.08
2024-05-09T00:31:04.784Z,37.07
2024-05-09T00:32:04.975Z,37.08
2024-05-09T00:33:06.028Z,37.08
2024-05-09T00:34:05.190Z,37.04
2024-05-09T00:35:05.043Z,37.08
2024-05-09T00:36:05.044Z,37.06
2024-05-09T00:37:05.117Z,37.06
2024-05-09T00:38:05.311Z,37.06
2024-05-09T00:39:05.208Z,37.02
2024-05-09T00:40:07.425Z,37.01
2024-05-09T00:41:05.317Z,37.04
2024-05-09T00:42:05.320Z,37.04
2024-05-09T00:43:05.310Z,37.04
2024-05-09T00:44:05.353Z,37.02
2024-05-09T00:45:05.331Z,37.03
2024-05-09T00:46:05.335Z,37.02
2024-05-09T00:47:05.420Z,37.03
2024-05-09T00:48:05.594Z,37.02
2024-05-09T00:49:05.422Z,37.02
2024-05-09T00:50:09.934Z,36.95
2024-05-09T00:51:06.530Z,36.98
2024-05-09T00:52:05.382Z,36.99
2024-05-09T00:53:05.454Z,36.97
2024-05-09T00:54:05.375Z,36.99
2024-05-09T00:55:05.374Z,36.97
2024-05-09T00:56:05.449Z,36.98
2024-05-09T00:57:05.434Z,36.98
2024-05-09T00:58:05.441Z,36.96
2024-05-09T00:59:05.462Z,36.94
2024-05-09T01:00:07.788Z,36.93
2024-05-09T01:01:05.548Z,36.96
2024-05-09T01:02:05.484Z,36.94
2024-05-09T01:03:05.920Z,36.92
2024-05-09T01:04:05.510Z,36.92
2024-05-09T01:05:05.519Z,36.95
2024-05-09T01:06:05.477Z,36.91
2024-05-09T01:07:05.438Z,36.91
2024-05-09T01:08:05.535Z,36.92
2024-05-09T01:09:05.460Z,36.91
2024-05-09T01:10:09.188Z,36.90
2024-05-09T01:11:06.533Z,36.92
2024-05-09T01:12:05.629Z,36.92
2024-05-09T01:13:05.955Z,36.92
2024-05-09T01:14:05.655Z,36.91
2024-05-09T01:15:05.550Z,36.93
2024-05-09T01:16:05.549Z,36.91
2024-05-09T01:17:05.571Z,36.89
2024-05-09T01:18:05.699Z,36.86
2024-05-09T01:19:05.637Z,36.87
2024-05-09T01:20:06.436Z,36.87
2024-05-09T01:21:05.632Z,36.88
2024-05-09T01:22:05.587Z,36.85
2024-05-09T01:23:05.607Z,36.86
2024-05-09T01:24:05.582Z,36.85
2024-05-09T01:25:05.599Z,36.85
2024-05-09T01:26:05.677Z,36.83
2024-05-09T01:27:05.673Z,36.84
2024-05-09T01:28:05.647Z,36.84
2024-05-09T01:29:05.679Z,36.84
2024-05-09T01:30:09.517Z,36.82
2024-05-09T01:31:06.641Z,36.82
2024-05-09T01:32:05.747Z,36.83
2024-05-09T01:33:07.390Z,36.84
2024-05-09T01:34:05.675Z,36.81
2024-05-09T01:35:05.695Z,36.82
2024-05-09T01:36:05.655Z,36.85
2024-05-09T01:37:05.708Z,36.83
2024-05-09T01:38:05.870Z,36.81
2024-05-09T01:39:05.665Z,36.83
2024-05-09T01:40:09.560Z,36.84
2024-05-09T01:41:06.686Z,36.83
2024-05-09T01:42:05.702Z,36.84
2024-05-09T01:43:05.699Z,36.81
2024-05-09T01:44:05.740Z,36.80
2024-05-09T01:45:05.684Z,36.81
2024-05-09T01:46:05.688Z,36.80
2024-05-09T01:47:05.715Z,36.79
2024-05-09T01:48:05.877Z,36.82
2024-05-09T01:49:05.857Z,36.77
2024-05-09T01:50:08.984Z,36.79
2024-05-09T01:51:06.770Z,36.76
2024-05-09T01:52:05.740Z,36.79
2024-05-09T01:53:05.906Z,36.74
2024-05-09T01:54:05.724Z,36.78
2024-05-09T01:55:06.718Z,36.78
2024-05-09T01:56:05.742Z,36.78
2024-05-09T01:57:05.770Z,36.74
2024-05-09T01:58:05.781Z,36.78
2024-05-09T01:59:05.773Z,36.74
2024-05-09T02:00:07.714Z,36.72
2024-05-09T02:01:05.876Z,36.70
2024-05-09T02:02:05.934Z,36.72
2024-05-09T02:03:05.977Z,36.75
2024-05-09T02:04:06.116Z,36.73
2024-05-09T02:05:06.099Z,36.71
2024-05-09T02:06:05.849Z,36.72
2024-05-09T02:07:05.833Z,36.71
2024-05-09T02:08:05.830Z,36.69
2024-05-09T02:09:05.791Z,36.71
2024-05-09T02:10:13.605Z,36.70
2024-05-09T02:11:06.866Z,36.72
2024-05-09T02:12:06.061Z,36.71
2024-05-09T02:13:05.806Z,36.72
2024-05-09T02:14:05.851Z,36.71
2024-05-09T02:15:05.804Z,36.71
2024-05-09T02:16:05.820Z,36.69
2024-05-09T02:17:05.846Z,36.69
2024-05-09T02:18:06.050Z,36.69
2024-05-09T02:19:05.909Z,36.69
2024-05-09T02:20:06.294Z,36.70
2024-05-09T02:21:05.868Z,36.71
2024-05-09T02:22:05.822Z,36.66
2024-05-09T02:23:06.324Z,36.70
2024-05-09T02:24:05.856Z,36.69
2024-05-09T02:25:05.870Z,36.70
2024-05-09T02:26:06.024Z,36.68
2024-05-09T02:27:06.114Z,36.69
2024-05-09T02:28:06.043Z,36.70
2024-05-09T02:29:06.110Z,36.71
2024-05-09T02:30:12.307Z,36.71
2024-05-09T02:31:07.072Z,36.69
2024-05-09T02:32:06.125Z,36.72
2024-05-09T02:33:06.329Z,36.71
2024-05-09T02:34:06.201Z,36.69
2024-05-09T02:35:06.111Z,36.68
2024-05-09T02:36:06.082Z,36.66
2024-05-09T02:37:06.127Z,36.63
2024-05-09T02:38:06.165Z,36.67
2024-05-09T02:39:06.091Z,36.62
2024-05-09T02:40:09.250Z,36.62
2024-05-09T02:41:07.322Z,36.62
2024-05-09T02:42:06.116Z,36.60
2024-05-09T02:43:06.359Z,36.64
2024-05-09T02:44:06.182Z,36.64
2024-05-09T02:45:06.112Z,36.63
2024-05-09T02:46:06.104Z,36.64
2024-05-09T02:47:06.154Z,36.62
2024-05-09T02:48:06.421Z,36.62
2024-05-09T02:49:06.255Z,36.61
2024-05-09T02:50:07.981Z,36.60
2024-05-09T02:51:06.269Z,36.61
2024-05-09T02:52:06.134Z,36.61
2024-05-09T02:53:06.350Z,36.60
2024-05-09T02:54:06.217Z,36.62
2024-05-09T02:55:06.235Z,36.61
2024-05-09T02:56:06.301Z,36.61
2024-05-09T02:57:06.379Z,36.62
2024-05-09T02:58:06.373Z,36.62
2024-05-09T02:59:06.396Z,36.61
2024-05-09T03:00:14.939Z,36.61
2024-05-09T03:01:07.643Z,36.59
2024-05-09T03:02:06.550Z,36.63
2024-05-09T03:03:06.952Z,36.59
2024-05-09T03:04:06.600Z,36.62
2024-05-09T03:05:06.507Z,36.59
2024-05-09T03:06:06.490Z,36.61
2024-05-09T03:07:06.777Z,36.60
2024-05-09T03:08:06.561Z,36.63
2024-05-09T03:09:06.487Z,36.62
2024-05-09T03:10:12.211Z,36.62
2024-05-09T03:11:07.597Z,36.66
2024-05-09T03:12:06.604Z,36.63
2024-05-09T03:13:06.523Z,36.56
2024-05-09T03:14:06.534Z,36.59
2024-05-09T03:15:06.495Z,36.57
2024-05-09T03:16:06.551Z,36.57
2024-05-09T03:17:06.627Z,36.57
2024-05-09T03:18:07.157Z,36.57
2024-05-09T03:19:06.602Z,36.55
2024-05-09T03:20:11.657Z,36.54
2024-05-09T03:21:07.602Z,36.57
2024-05-09T03:22:06.515Z,36.55
2024-05-09T03:23:06.700Z,36.54
2024-05-09T03:24:06.513Z,36.52
2024-05-09T03:25:06.526Z,36.52
2024-05-09T03:26:06.541Z,36.52
2024-05-09T03:27:06.601Z,36.51
2024-05-09T03:28:06.560Z,36.49
2024-05-09T03:29:06.558Z,36.52
2024-05-09T03:30:07.661Z,36.54
2024-05-09T03:31:06.522Z,36.53
2024-05-09T03:32:06.598Z,36.52
2024-05-09T03:33:06.652Z,36.52
2024-05-09T03:34:06.755Z,36.52
2024-05-09T03:35:06.598Z,36.52
2024-05-09T03:36:08.961Z,36.52
2024-05-09T03:37:06.670Z,36.53
2024-05-09T03:38:06.629Z,36.51
2024-05-09T03:39:06.564Z,36.55
2024-05-09T03:40:09.357Z,36.53
2024-05-09T03:41:07.637Z,36.56
2024-05-09T03:42:06.591Z,36.55
2024-05-09T03:43:06.578Z,36.51
2024-05-09T03:44:06.598Z,36.50
2024-05-09T03:45:06.581Z,36.53
2024-05-09T03:46:06.584Z,36.51
2024-05-09T03:47:06.683Z,36.54
2024-05-09T03:48:06.736Z,36.52
2024-05-09T03:49:06.747Z,36.52
2024-05-09T03:50:14.965Z,36.53
2024-05-09T03:51:07.701Z,36.56
2024-05-09T03:52:06.598Z,36.51
2024-05-09T03:53:06.678Z,36.54
2024-05-09T03:54:06.613Z,36.50
2024-05-09T03:55:06.606Z,36.53
2024-05-09T03:56:06.632Z,36.53
2024-05-09T03:57:06.705Z,36.52
2024-05-09T03:58:06.602Z,36.49
2024-05-09T03:59:06.638Z,36.52
2024-05-09T04:00:14.450Z,36.48
2024-05-09T04:01:07.610Z,36.46
2024-05-09T04:02:06.717Z,36.48
2024-05-09T04:03:08.743Z,36.46
2024-05-09T04:04:06.635Z,36.47
2024-05-09T04:05:06.652Z,36.43
2024-05-09T04:06:06.614Z,36.46
2024-05-09T04:07:06.653Z,36.42
2024-05-09T04:08:06.679Z,36.45
2024-05-09T04:09:06.624Z,36.44
2024-05-09T04:10:09.015Z,36.45
2024-05-09T04:11:06.729Z,36.45
2024-05-09T04:12:06.693Z,36.47
2024-05-09T04:13:06.640Z,36.45
2024-05-09T04:14:06.720Z,36.46
2024-05-09T04:15:09.606Z,36.46
2024-05-09T04:16:06.652Z,36.46
2024-05-09T04:17:06.729Z,36.46
2024-05-09T04:18:07.050Z,36.49
2024-05-09T04:19:06.769Z,36.50
2024-05-09T04:20:08.535Z,36.49
2024-05-09T04:21:06.689Z,36.49
2024-05-09T04:22:06.645Z,36.47
2024-05-09T04:23:07.558Z,36.49
2024-05-09T04:24:06.658Z,36.47
2024-05-09T04:25:06.666Z,36.48
2024-05-09T04:26:06.678Z,36.48
2024-05-09T04:27:06.721Z,36.50
2024-05-09T04:28:06.693Z,36.49
2024-05-09T04:29:06.714Z,36.44
2024-05-09T04:30:10.075Z,36.47
2024-05-09T04:31:07.683Z,36.48
2024-05-09T04:32:06.762Z,36.49
2024-05-09T04:33:08.043Z,36.47
2024-05-09T04:34:06.860Z,36.47
2024-05-09T04:35:06.705Z,36.43
2024-05-09T04:36:06.701Z,36.44
2024-05-09T04:37:13.966Z,36.44
2024-05-09T04:38:14.941Z,36.41
2024-05-09T04:39:13.984Z,36.39
2024-05-09T04:40:24.151Z,36.41
2024-05-09T04:41:15.026Z,36.40
2024-05-09T04:42:14.060Z,36.41
2024-05-09T04:43:14.144Z,36.40
2024-05-09T04:44:14.086Z,36.43
2024-05-09T04:45:14.058Z,36.41
2024-05-09T04:46:14.083Z,36.42
2024-05-09T04:47:14.190Z,36.40
2024-05-09T04:48:14.437Z,36.40
2024-05-09T04:49:14.336Z,36.39
2024-05-09T04:50:21.170Z,36.38
2024-05-09T04:51:15.136Z,36.39
2024-05-09T04:52:14.111Z,36.38
2024-05-09T04:53:14.187Z,36.39
2024-05-09T04:54:26.001Z,36.38
2024-05-09T04:55:15.143Z,36.42
2024-05-09T04:56:14.277Z,36.41
2024-05-09T04:57:14.172Z,36.40
2024-05-09T04:58:14.171Z,36.37
2024-05-09T04:59:14.292Z,36.34
2024-05-09T05:00:18.076Z,36.36
2024-05-09T05:01:15.340Z,36.38
2024-05-09T05:02:14.316Z,36.34
2024-05-09T05:03:15.924Z,36.34
2024-05-09T05:04:14.570Z,36.35
2024-05-09T05:05:14.694Z,36.32
2024-05-09T05:06:14.645Z,36.32
2024-05-09T05:07:14.698Z,36.29
2024-05-09T05:08:15.239Z,36.27
2024-05-09T05:09:14.865Z,36.28
2024-05-09T05:10:21.649Z,36.24
2024-05-09T05:11:16.033Z,36.28
2024-05-09T05:12:15.053Z,36.22
2024-05-09T05:13:14.911Z,36.23
2024-05-09T05:14:14.912Z,36.19
2024-05-09T05:15:14.904Z,36.15
2024-05-09T05:16:14.925Z,36.10
2024-05-09T05:17:14.948Z,36.06
2024-05-09T05:18:15.047Z,36.01
2024-05-09T05:19:17.485Z,35.93
2024-05-09T05:20:18.045Z,35.91
2024-05-09T05:21:15.973Z,35.92
2024-05-09T05:22:14.931Z,35.87
2024-05-09T05:23:15.171Z,35.86
2024-05-09T05:24:14.938Z,35.88
2024-05-09T05:25:14.945Z,35.87
2024-05-09T05:26:14.963Z,35.86
2024-05-09T05:27:14.950Z,35.84
2024-05-09T05:28:14.955Z,35.90
2024-05-09T05:29:17.221Z,35.87
2024-05-09T05:30:21.332Z,35.85
2024-05-09T05:31:16.025Z,35.85
2024-05-09T05:32:15.181Z,35.86
2024-05-09T05:33:15.429Z,35.87
2024-05-09T05:34:15.021Z,35.90
2024-05-09T05:35:15.042Z,35.93
2024-05-09T05:36:15.023Z,35.89
2024-05-09T05:37:15.028Z,35.89
2024-05-09T05:38:15.083Z,35.93
2024-05-09T05:39:15.044Z,35.98
2024-05-09T05:40:25.222Z,35.95
2024-05-09T05:41:16.113Z,35.98
2024-05-09T05:42:15.052Z,36.10
2024-05-09T05:43:15.070Z,36.06
2024-05-09T05:44:15.106Z,36.10
2024-05-09T05:45:15.073Z,36.07
2024-05-09T05:46:15.084Z,36.07
2024-05-09T05:47:15.215Z,36.11
2024-05-09T05:48:15.160Z,36.07
2024-05-09T05:49:15.214Z,35.98
2024-05-09T05:50:24.242Z,36.02
2024-05-09T05:51:16.342Z,35.94
2024-05-09T05:52:15.179Z,35.92
2024-05-09T05:53:15.493Z,35.86
2024-05-09T05:54:15.193Z,35.88
2024-05-09T05:55:15.192Z,35.82
2024-05-09T05:56:15.223Z,35.72
2024-05-09T05:57:15.210Z,35.70
2024-05-09T05:58:15.234Z,35.57
2024-05-09T05:59:15.905Z,35.57
2024-05-09T06:00:25.430Z,35.51
2024-05-09T06:01:16.238Z,35.49
2024-05-09T06:02:15.300Z,35.49
2024-05-09T06:03:15.272Z,35.43
2024-05-09T06:04:15.214Z,35.39
2024-05-09T06:05:15.227Z,35.33
2024-05-09T06:06:15.196Z,35.25
2024-05-09T06:07:15.188Z,35.21
2024-05-09T06:08:15.293Z,35.19
2024-05-09T06:09:15.183Z,35.07
2024-05-09T06:10:21.379Z,35.03
2024-05-09T06:11:16.227Z,34.97
2024-05-09T06:12:15.260Z,34.90
2024-05-09T06:13:15.157Z,34.87
2024-05-09T06:14:15.173Z,34.81
2024-05-09T06:15:15.168Z,34.84
2024-05-09T06:16:15.138Z,34.78
2024-05-09T06:17:15.223Z,34.74
2024-05-09T06:18:15.316Z,34.75
2024-05-09T06:19:15.305Z,34.69
2024-05-09T06:20:20.717Z,34.63
2024-05-09T06:21:16.323Z,34.60
2024-05-09T06:22:15.136Z,34.49
2024-05-09T06:23:15.194Z,34.31
2024-05-09T06:24:15.119Z,34.15
2024-05-09T06:25:15.131Z,33.99
2024-05-09T06:26:15.170Z,33.95
2024-05-09T06:27:15.104Z,33.98
2024-05-09T06:28:15.140Z,34.04
2024-05-09T06:29:15.127Z,34.16
2024-05-09T06:30:25.621Z,34.18
2024-05-09T06:31:16.079Z,34.29
2024-05-09T06:32:15.129Z,34.32
2024-05-09T06:33:16.480Z,34.33
2024-05-09T06:34:15.136Z,34.36
2024-05-09T06:35:15.161Z,34.39
2024-05-09T06:36:15.053Z,34.45
2024-05-09T06:37:15.042Z,34.45
2024-05-09T06:38:15.153Z,34.46
2024-05-09T06:39:15.035Z,34.51
2024-05-09T06:40:21.256Z,34.51
2024-05-09T06:41:16.053Z,34.49
2024-05-09T06:42:15.023Z,34.45
2024-05-09T06:43:16.836Z,34.45
2024-05-09T06:44:15.047Z,34.41
2024-05-09T06:45:15.009Z,34.32
2024-05-09T06:46:14.997Z,34.30
2024-05-09T06:47:15.045Z,34.22
2024-05-09T06:48:15.180Z,34.19
2024-05-09T06:49:15.174Z,34.13
2024-05-09T06:50:23.297Z,34.12
2024-05-09T06:51:16.040Z,34.09
2024-05-09T06:52:14.970Z,34.06
2024-05-09T06:53:15.242Z,34.03
2024-05-09T06:54:14.938Z,34.03
2024-05-09T06:55:14.932Z,34.01
2024-05-09T06:56:14.977Z,34.03
2024-05-09T06:57:14.914Z,33.97
2024-05-09T06:58:14.917Z,33.93
2024-05-09T06:59:14.997Z,33.91
2024-05-09T07:00:22.833Z,33.89
2024-05-09T07:01:16.040Z,33.85
2024-05-09T07:02:15.133Z,33.82
2024-05-09T07:03:17.344Z,33.76
2024-05-09T07:04:15.158Z,33.70
2024-05-09T07:05:15.046Z,33.63
2024-05-09T07:06:14.969Z,33.57
2024-05-09T07:07:14.918Z,33.49
2024-05-09T07:08:15.053Z,33.47
2024-05-09T07:09:14.889Z,33.42
2024-05-09T07:10:21.994Z,33.34
2024-05-09T07:11:15.981Z,33.18
2024-05-09T07:12:14.950Z,33.05
2024-05-09T07:13:15.420Z,32.95
2024-05-09T07:14:14.862Z,32.82
2024-05-09T07:15:14.795Z,32.98
2024-05-09T07:16:14.778Z,33.38
2024-05-09T07:17:14.908Z,33.64
2024-05-09T07:18:14.978Z,33.88
2024-05-09T07:19:15.059Z,34.06
2024-05-09T07:20:23.126Z,34.24
2024-05-09T07:21:15.835Z,34.35
2024-05-09T07:22:14.694Z,34.52
2024-05-09T07:23:14.749Z,34.63
2024-05-09T07:24:14.674Z,34.68
2024-05-09T07:25:14.707Z,34.78
2024-05-09T07:26:14.676Z,34.84
2024-05-09T07:27:14.656Z,34.88
2024-05-09T07:28:14.761Z,34.91
2024-05-09T07:29:14.715Z,34.96
2024-05-09T07:30:22.909Z,34.98
2024-05-09T07:31:15.630Z,35.03
2024-05-09T07:32:14.739Z,35.05
2024-05-09T07:33:14.764Z,35.06
2024-05-09T07:34:14.836Z,35.07
2024-05-09T07:35:14.672Z,35.09
2024-05-09T07:36:14.603Z,35.06
2024-05-09T07:37:14.599Z,35.09
2024-05-09T07:38:14.837Z,35.07
2024-05-09T07:39:14.692Z,35.05
2024-05-09T07:40:24.180Z,34.99
2024-05-09T07:41:15.581Z,35.05
2024-05-09T07:42:14.636Z,35.05
2024-05-09T07:43:15.154Z,35.01
2024-05-09T07:44:14.693Z,35.03
2024-05-09T07:45:29.989Z,35.10
2024-05-09T07:48:28.649Z,35.04
2024-05-09T07:49:45.377Z,35.10
2024-05-09T07:53:29.763Z,35.05
2024-05-09T07:53:37.827Z,35.06
2024-05-09T07:54:15.675Z,35.06
2024-05-09T07:55:14.698Z,35.05
2024-05-09T07:56:14.720Z,35.00
2024-05-09T07:57:14.687Z,34.76
2024-05-09T07:58:14.549Z,34.49
2024-05-09T07:59:14.503Z,34.18
2024-05-09T08:00:17.307Z,33.92
2024-05-09T08:01:15.614Z,33.65
2024-05-09T08:02:14.615Z,33.39
2024-05-09T08:03:14.510Z,33.30
2024-05-09T08:04:14.523Z,33.28
2024-05-09T08:05:14.609Z,33.05
2024-05-09T08:06:14.561Z,32.99
2024-05-09T08:07:14.541Z,32.79
2024-05-09T08:08:14.374Z,32.58
2024-05-09T08:09:20.777Z,32.39
2024-05-09T08:10:19.160Z,32.24
2024-05-09T08:11:15.341Z,32.18
2024-05-09T08:12:14.276Z,32.19
2024-05-09T08:13:14.328Z,32.08
2024-05-09T08:14:14.225Z,32.06
2024-05-09T08:15:14.215Z,32.10
2024-05-09T08:16:14.428Z,32.13
2024-05-09T08:17:14.211Z,32.14
2024-05-09T08:18:14.330Z,32.07
2024-05-09T08:19:14.209Z,31.81
2024-05-09T08:20:22.848Z,31.58
2024-05-09T08:21:15.108Z,31.57
2024-05-09T08:22:14.174Z,31.45
2024-05-09T08:23:14.059Z,31.46
2024-05-09T08:24:14.036Z,31.36
2024-05-09T08:25:14.528Z,31.45
2024-05-09T08:26:14.002Z,31.44
2024-05-09T08:27:13.956Z,31.35
2024-05-09T08:28:14.266Z,31.34
2024-05-09T08:29:13.901Z,31.27
2024-05-09T08:30:21.846Z,31.27
2024-05-09T08:31:15.075Z,31.25
2024-05-09T08:32:13.920Z,31.43
2024-05-09T08:33:13.945Z,31.80
2024-05-09T08:34:13.993Z,32.05
2024-05-09T08:35:13.737Z,32.30
2024-05-09T08:36:13.730Z,32.53
2024-05-09T08:37:21.173Z,32.69
2024-05-09T08:38:14.707Z,32.83
2024-05-09T08:39:13.636Z,32.96
2024-05-09T08:40:23.623Z,33.09
2024-05-09T08:41:14.605Z,33.19
2024-05-09T08:42:13.596Z,33.28
2024-05-09T08:43:13.767Z,33.35
2024-05-09T08:44:13.553Z,33.40
2024-05-09T08:45:13.537Z,33.44
2024-05-09T08:46:13.698Z,33.51
2024-05-09T08:47:13.525Z,33.57
2024-05-09T08:48:14.804Z,33.59
2024-05-09T08:49:13.745Z,33.66
2024-05-09T08:50:23.567Z,33.72
2024-05-09T08:51:14.608Z,33.75
2024-05-09T08:52:13.563Z,33.78
2024-05-09T08:53:13.520Z,33.84
2024-05-09T08:54:13.494Z,33.84
2024-05-09T08:55:13.624Z,33.86
2024-05-09T08:56:13.469Z,33.87
2024-05-09T08:57:13.465Z,33.91
2024-05-09T08:58:13.798Z,33.93
2024-05-09T08:59:13.445Z,33.90
2024-05-09T09:00:18.029Z,33.91
2024-05-09T09:01:14.481Z,33.91
2024-05-09T09:02:13.792Z,33.90
2024-05-09T09:03:13.449Z,33.88
2024-05-09T09:04:13.590Z,33.87
2024-05-09T09:05:13.368Z,33.85
2024-05-09T09:06:13.297Z,33.82
2024-05-09T09:07:13.341Z,33.81
2024-05-09T09:08:13.265Z,33.78
2024-05-09T09:09:13.254Z,33.81
2024-05-09T09:11:13.286Z,33.81
2024-05-09T09:12:13.218Z,33.83
2024-05-09T09:13:13.294Z,33.74
2024-05-09T09:14:13.185Z,33.80
2024-05-09T09:15:13.171Z,33.78
2024-05-09T09:16:13.259Z,33.74
2024-05-09T09:17:13.182Z,33.71
2024-05-09T09:18:13.295Z,33.74
2024-05-09T09:19:13.234Z,33.79
2024-05-09T09:20:16.498Z,33.70
2024-05-09T09:21:14.125Z,33.74
2024-05-09T09:22:13.183Z,33.76
2024-05-09T09:23:13.096Z,33.73
2024-05-09T09:24:13.078Z,33.74
2024-05-09T09:25:13.111Z,33.68
2024-05-09T09:26:13.057Z,33.74
2024-05-09T09:27:13.046Z,33.70
2024-05-09T09:28:13.068Z,33.62
2024-05-09T09:29:13.024Z,33.50
2024-05-09T09:30:27.402Z,33.40
2024-05-09T09:31:14.054Z,33.21
2024-05-09T09:32:12.978Z,33.11
2024-05-09T09:33:13.112Z,32.99
2024-05-09T09:34:13.267Z,32.89
2024-05-09T09:35:12.916Z,32.81
2024-05-09T09:36:12.950Z,32.78
2024-05-09T09:37:12.912Z,32.69
2024-05-09T09:38:12.862Z,32.60
2024-05-09T09:39:12.847Z,32.46
2024-05-09T09:40:13.349Z,32.39
2024-05-09T09:41:12.976Z,32.35
2024-05-09T09:42:12.925Z,32.54
2024-05-09T09:43:13.036Z,32.68
2024-05-09T09:44:13.005Z,32.83
2024-05-09T09:45:12.998Z,32.91
2024-05-09T09:46:13.291Z,32.98
2024-05-09T09:47:13.137Z,33.09
2024-05-09T09:48:13.267Z,33.12
2024-05-09T09:49:13.258Z,33.13
2024-05-09T09:50:16.985Z,33.22
2024-05-09T09:51:14.220Z,33.26
2024-05-09T09:52:13.375Z,33.28
2024-05-09T09:53:13.196Z,33.28
2024-05-09T09:54:13.182Z,33.27
2024-05-09T09:55:13.331Z,33.26
2024-05-09T09:56:13.167Z,33.28
2024-05-09T09:57:13.183Z,33.36
2024-05-09T09:58:14.439Z,33.31
2024-05-09T09:59:13.171Z,33.33
2024-05-09T10:00:17.399Z,33.34
2024-05-09T10:01:14.218Z,33.35
2024-05-09T10:02:13.329Z,33.33
2024-05-09T10:03:13.254Z,33.40
2024-05-09T10:04:13.202Z,33.36
2024-05-09T10:05:13.187Z,33.37
2024-05-09T10:06:13.112Z,33.43
2024-05-09T10:07:13.128Z,33.37
2024-05-09T10:08:13.111Z,33.43
2024-05-09T10:09:13.073Z,33.48
2024-05-09T10:10:16.343Z,33.49
2024-05-09T10:11:14.091Z,33.50
2024-05-09T10:12:13.083Z,33.53
2024-05-09T10:13:13.760Z,33.46
2024-05-09T10:14:13.044Z,33.53
2024-05-09T10:15:13.035Z,33.55
2024-05-09T10:16:13.073Z,33.52
2024-05-09T10:17:13.093Z,33.53
2024-05-09T10:18:13.240Z,33.50
2024-05-09T10:19:13.077Z,33.53
2024-05-09T10:20:21.334Z,33.53
2024-05-09T10:21:14.018Z,33.52
2024-05-09T10:22:13.058Z,33.53
2024-05-09T10:23:13.001Z,33.50
2024-05-09T10:24:12.986Z,33.53
2024-05-09T10:25:13.050Z,33.54
2024-05-09T10:26:12.973Z,33.54
2024-05-09T10:27:12.972Z,33.50
2024-05-09T10:28:13.012Z,33.49
2024-05-09T10:29:12.982Z,33.49
2024-05-09T10:30:21.253Z,33.48
2024-05-09T10:31:14.190Z,33.49
2024-05-09T10:32:12.952Z,33.46
2024-05-09T10:33:13.142Z,33.44
2024-05-09T10:34:13.407Z,33.49
2024-05-09T10:35:12.989Z,33.45
2024-05-09T10:36:12.934Z,33.41
2024-05-09T10:37:12.962Z,33.39
2024-05-09T10:38:12.929Z,33.37
2024-05-09T10:39:12.920Z,33.37
2024-05-09T10:40:20.277Z,33.34
2024-05-09T10:41:13.935Z,33.33
2024-05-09T10:42:12.924Z,33.30
2024-05-09T10:43:12.978Z,33.26
2024-05-09T10:44:12.904Z,33.25
2024-05-09T10:45:12.903Z,33.22
2024-05-09T10:46:13.071Z,33.22
2024-05-09T10:47:12.972Z,33.22
2024-05-09T10:48:12.969Z,33.18
2024-05-09T10:49:13.015Z,33.16
2024-05-09T10:51:12.982Z,33.11
2024-05-09T10:52:13.087Z,33.14
2024-05-09T10:53:13.101Z,33.07
2024-05-09T10:54:13.110Z,33.09
2024-05-09T10:55:13.156Z,33.06
2024-05-09T10:56:13.132Z,33.05
2024-05-09T10:57:13.142Z,33.03
2024-05-09T10:58:13.247Z,33.03
2024-05-09T10:59:13.166Z,33.01
2024-05-09T11:00:19.457Z,33.02
2024-05-09T11:01:14.523Z,32.99
2024-05-09T11:02:13.287Z,33.01
2024-05-09T11:03:13.224Z,32.99
2024-05-09T11:04:13.365Z,32.99
2024-05-09T11:05:13.305Z,32.93
2024-05-09T11:06:13.168Z,32.88
2024-05-09T11:07:13.259Z,32.90
2024-05-09T11:08:13.169Z,32.87
2024-05-09T11:09:13.167Z,32.86
2024-05-09T11:10:17.917Z,32.84
2024-05-09T11:11:14.180Z,32.82
2024-05-09T11:12:13.228Z,32.84
2024-05-09T11:13:13.289Z,32.82
2024-05-09T11:14:13.165Z,32.70
2024-05-09T11:15:13.155Z,32.69
2024-05-09T11:16:13.309Z,32.70
2024-05-09T11:17:13.187Z,32.73
2024-05-09T11:18:13.269Z,32.72
2024-05-09T11:19:13.329Z,32.69
2024-05-09T11:20:19.647Z,32.65
2024-05-09T11:21:14.298Z,32.69
2024-05-09T11:22:13.242Z,32.59
2024-05-09T11:23:13.148Z,32.60
2024-05-09T11:24:13.150Z,32.62
2024-05-09T11:25:13.386Z,32.63
2024-05-09T11:26:13.141Z,32.61
2024-05-09T11:27:13.137Z,32.59
2024-05-09T11:28:13.277Z,32.57
2024-05-09T11:29:15.006Z,32.57
2024-05-09T11:30:20.848Z,32.59
2024-05-09T11:31:14.313Z,32.56
2024-05-09T11:32:13.256Z,32.52
2024-05-09T11:33:13.278Z,32.49
2024-05-09T11:34:13.306Z,32.48
2024-05-09T11:35:13.248Z,32.44
2024-05-09T11:36:13.263Z,32.47
2024-05-09T11:37:13.454Z,32.42
2024-05-09T11:38:13.267Z,32.45
2024-05-09T11:39:13.240Z,32.38
2024-05-09T11:40:21.150Z,32.38
2024-05-09T11:41:14.242Z,32.41
2024-05-09T11:42:13.236Z,32.40
2024-05-09T11:43:13.310Z,32.36
2024-05-09T11:44:13.277Z,32.35
2024-05-09T11:45:13.235Z,32.30
2024-05-09T11:46:13.445Z,32.31
2024-05-09T11:47:13.268Z,32.30
2024-05-09T11:48:13.351Z,32.29
2024-05-09T11:49:13.371Z,32.26
2024-05-09T11:50:22.329Z,32.29
2024-05-09T11:51:14.223Z,32.26
2024-05-09T11:52:13.276Z,32.26
2024-05-09T11:53:13.244Z,32.24
2024-05-09T11:54:13.281Z,32.17
2024-05-09T11:55:13.246Z,32.19
2024-05-09T11:56:13.201Z,32.20
2024-05-09T11:57:13.205Z,32.16
2024-05-09T11:58:13.464Z,32.17
2024-05-09T11:59:13.201Z,32.17
2024-05-09T12:00:18.240Z,32.20
2024-05-09T12:01:14.257Z,32.18
2024-05-09T12:02:13.419Z,32.14
2024-05-09T12:03:13.245Z,32.15
2024-05-09T12:04:13.376Z,32.17
2024-05-09T12:05:13.250Z,32.16
2024-05-09T12:06:13.208Z,32.19
2024-05-09T12:07:13.258Z,32.15
2024-05-09T12:08:13.176Z,32.17
2024-05-09T12:09:13.163Z,32.17
2024-05-09T12:10:16.853Z,32.17
2024-05-09T12:11:14.374Z,32.18
2024-05-09T12:12:13.171Z,32.18
2024-05-09T12:13:13.226Z,32.22
2024-05-09T12:14:13.162Z,32.22
2024-05-09T12:15:13.164Z,32.26
2024-05-09T12:16:13.268Z,32.21
2024-05-09T12:17:13.246Z,32.22
2024-05-09T12:18:13.200Z,32.22
2024-05-09T12:19:13.163Z,32.24
2024-05-09T12:20:20.962Z,32.20
2024-05-09T12:21:14.155Z,32.18
2024-05-09T12:22:13.339Z,32.20
2024-05-09T12:23:13.199Z,32.20
2024-05-09T12:24:16.846Z,32.20
2024-05-09T12:25:14.385Z,32.20
2024-05-09T12:26:13.160Z,32.21
2024-05-09T12:27:13.165Z,32.18
2024-05-09T12:28:13.261Z,32.22
2024-05-09T12:29:13.177Z,32.27
2024-05-09T12:30:20.750Z,32.27
2024-05-09T12:31:14.209Z,32.28
2024-05-09T12:32:13.197Z,32.29
2024-05-09T12:33:13.691Z,32.30
2024-05-09T12:34:13.273Z,32.34
2024-05-09T12:35:13.138Z,32.36
2024-05-09T12:36:13.120Z,32.39
2024-05-09T12:37:13.210Z,32.40
2024-05-09T12:38:13.121Z,32.43
2024-05-09T12:39:13.110Z,32.44
2024-05-09T12:40:22.440Z,32.46
2024-05-09T12:41:14.107Z,32.50
2024-05-09T12:42:25.911Z,32.51
2024-05-09T12:43:14.162Z,32.55
2024-05-09T12:44:13.102Z,32.56
2024-05-09T12:45:13.086Z,32.59
2024-05-09T12:46:13.122Z,32.62
2024-05-09T12:47:13.095Z,32.64
2024-05-09T12:48:13.573Z,32.66
2024-05-09T12:49:15.663Z,32.68
2024-05-09T12:50:21.911Z,32.67
2024-05-09T12:51:14.080Z,32.66
2024-05-09T12:52:13.225Z,32.62
2024-05-09T12:53:13.070Z,32.58
2024-05-09T12:54:13.080Z,32.49
2024-05-09T12:55:13.217Z,32.43
2024-05-09T12:56:13.078Z,32.40
2024-05-09T12:57:13.078Z,32.37
2024-05-09T12:58:13.257Z,32.30